createdAt,value
2018-11-20T00:25:04.073Z,30.1
2018-11-20T00:25:53.196Z,30.1
2018-11-20T00:26:44.346Z,30.1
2018-11-20T00:27:34.152Z,30.1
2018-11-20T00:28:25.841Z,30.1
2018-11-20T00:29:13.283Z,30.1
2018-11-20T00:30:05.129Z,30.1
2018-11-20T00:30:54.450Z,30.1
2018-11-20T00:31:44.258Z,30.1
2018-11-20T00:32:34.353Z,30.1
2018-11-20T00:33:24.405Z,30.1
2018-11-20T00:34:14.500Z,30.1
2018-11-20T00:35:05.103Z,30.1
2018-11-20T00:35:54.808Z,30.1
2018-11-20T00:36:45.048Z,30.1
2018-11-20T00:37:34.047Z,30.1
2018-11-20T00:38:25.848Z,30.1
2018-11-20T00:39:14.792Z,30
2018-11-20T00:40:06.334Z,30.1
2018-11-20T00:40:55.717Z,30.1
2018-11-20T00:41:45.780Z,30
2018-11-20T00:42:38.672Z,30
2018-11-20T00:43:25.917Z,30
2018-11-20T00:44:16.074Z,30
2018-11-20T00:45:06.021Z,30
2018-11-20T00:45:56.462Z,30
2018-11-20T00:46:46.278Z,30
2018-11-20T00:47:35.740Z,30
2018-11-20T00:48:27.072Z,30
2018-11-20T00:49:16.769Z,29.9
2018-11-20T00:50:06.625Z,29.8
2018-11-20T00:50:57.902Z,29.6
2018-11-20T00:51:46.005Z,29.4
2018-11-20T00:52:35.795Z,29.2
2018-11-20T00:53:25.249Z,28.9
2018-11-20T00:54:15.939Z,28.7
2018-11-20T00:55:07.246Z,28.6
2018-11-20T00:55:57.027Z,28.5
2018-11-20T00:56:47.869Z,28.6
2018-11-20T00:57:37.059Z,29.1
2018-11-20T00:58:25.669Z,29.4
2018-11-20T00:59:17.186Z,29.1
2018-11-20T01:00:06.054Z,28.6
2018-11-20T01:00:57.264Z,28.1
2018-11-20T01:03:28.621Z,28.1
2018-11-20T01:04:18.087Z,28.3
2018-11-20T01:05:08.571Z,28.6
2018-11-20T01:05:57.376Z,28.8
2018-11-20T01:06:47.139Z,28.9
2018-11-20T01:07:38.291Z,29.1
2018-11-20T01:08:27.688Z,29.2
2018-11-20T01:09:17.919Z,29.3
2018-11-20T01:10:07.043Z,29.4
2018-11-20T01:10:58.302Z,29.6
2018-11-20T01:11:48.776Z,29.7
2018-11-20T01:12:38.557Z,29.8
2018-11-20T01:13:27.265Z,29.9
2018-11-20T01:14:18.153Z,29.9
2018-11-20T01:15:06.590Z,29.9
2018-11-20T01:15:57.117Z,29.9
2018-11-20T01:16:48.245Z,29.6
2018-11-20T01:17:38.116Z,29.3
2018-11-20T01:18:27.395Z,29.1
2018-11-20T01:19:18.766Z,28.9
2018-11-20T01:20:07.462Z,28.8
2018-11-20T01:20:57.728Z,28.8
2018-11-20T01:21:49.570Z,28.8
2018-11-20T01:22:39.360Z,28.8
2018-11-20T01:23:29.152Z,28.8
2018-11-20T01:24:18.829Z,28.5
2018-11-20T01:25:07.855Z,28.3
2018-11-20T01:25:59.367Z,28.2
2018-11-20T01:26:47.517Z,28.1
2018-11-20T01:27:37.929Z,28.1
2018-11-20T01:28:29.570Z,28
2018-11-20T01:29:18.522Z,27.9
2018-11-20T01:30:08.765Z,27.8
2018-11-20T01:31:00.249Z,28.1
2018-11-20T01:31:50.011Z,29
2018-11-20T01:32:39.861Z,28.4
2018-11-20T01:33:29.534Z,28.1
2018-11-20T01:34:18.782Z,28
2018-11-20T01:35:08.844Z,27.9
2018-11-20T01:36:00.018Z,28
2018-11-20T01:36:49.301Z,28.3
2018-11-20T01:37:39.608Z,28.4
2018-11-20T01:38:29.884Z,28.7
2018-11-20T01:39:19.356Z,28.8
2018-11-20T01:40:09.034Z,28.9
2018-11-20T01:40:58.946Z,29.1
2018-11-20T01:41:48.872Z,29.3
2018-11-20T01:42:38.734Z,29.3
2018-11-20T01:43:28.679Z,29.4
2018-11-20T01:44:20.241Z,29.6
2018-11-20T01:45:09.945Z,29.6
2018-11-20T01:46:00.462Z,29.7
2018-11-20T01:46:49.436Z,29.8
2018-11-20T01:47:40.238Z,29.8
2018-11-20T01:48:31.179Z,29.9
2018-11-20T01:49:19.391Z,30
2018-11-20T01:50:09.809Z,30
2018-11-20T01:51:00.323Z,29.9
2018-11-20T01:51:50.924Z,29.8
2018-11-20T01:52:40.129Z,29.4
2018-11-20T01:53:30.256Z,29.1
2018-11-20T01:54:20.883Z,28.9
2018-11-20T01:55:10.898Z,28.9
2018-11-20T01:56:00.600Z,28.8
2018-11-20T01:56:51.281Z,28.8
2018-11-20T01:57:40.165Z,28.8
2018-11-20T01:58:31.209Z,28.8
2018-11-20T01:59:20.210Z,28.6
2018-11-20T02:00:09.191Z,28.4
2018-11-20T02:01:01.108Z,28.3
2018-11-20T02:01:51.719Z,28.1
2018-11-20T02:02:40.695Z,28.1
2018-11-20T02:03:31.011Z,27.9
2018-11-20T02:04:22.240Z,27.9
2018-11-20T02:06:02.153Z,27.7
2018-11-20T02:06:51.638Z,28.3
2018-11-20T02:07:41.757Z,28.8
2018-11-20T02:08:30.712Z,28.3
2018-11-20T02:09:21.637Z,28
2018-11-20T02:10:11.207Z,27.9
2018-11-20T02:11:01.155Z,27.9
2018-11-20T02:11:51.227Z,28
2018-11-20T02:12:42.359Z,28.3
2018-11-20T02:13:30.614Z,28.4
2018-11-20T02:14:21.512Z,28.6
2018-11-20T02:15:11.427Z,28.8
2018-11-20T02:16:02.874Z,28.9
2018-11-20T02:16:51.029Z,29.1
2018-11-20T02:17:42.322Z,29.1
2018-11-20T02:18:31.624Z,29.3
2018-11-20T02:19:22.036Z,29.4
2018-11-20T02:20:11.414Z,29.4
2018-11-20T02:21:03.136Z,29.5
2018-11-20T02:21:53.024Z,29.6
2018-11-20T02:22:43.360Z,29.7
2018-11-20T02:23:33.614Z,29.8
2018-11-20T02:24:22.203Z,29.8
2018-11-20T02:25:12.573Z,29.8
2018-11-20T02:26:03.444Z,29.9
2018-11-20T02:26:53.046Z,29.9
2018-11-20T02:27:43.131Z,30
2018-11-20T02:28:33.519Z,30.1
2018-11-20T02:29:23.062Z,30
2018-11-20T02:30:13.739Z,29.9
2018-11-20T02:31:01.509Z,29.7
2018-11-20T02:31:53.383Z,29.3
2018-11-20T02:32:42.246Z,29.1
2018-11-20T02:33:34.176Z,28.9
2018-11-20T02:34:22.056Z,28.8
2018-11-20T02:35:14.154Z,28.8
2018-11-20T02:36:03.133Z,28.8
2018-11-20T02:36:53.359Z,28.8
2018-11-20T02:37:44.523Z,28.6
2018-11-20T02:38:32.658Z,28.4
2018-11-20T02:39:23.488Z,28.2
2018-11-20T02:40:14.860Z,28.1
2018-11-20T02:41:03.676Z,28
2018-11-20T02:41:54.555Z,27.9
2018-11-20T02:42:43.975Z,27.9
2018-11-20T02:44:23.713Z,27.6
2018-11-20T02:45:13.778Z,28
2018-11-20T02:46:04.468Z,28.8
2018-11-20T02:46:53.502Z,28.3
2018-11-20T02:47:44.775Z,28.1
2018-11-20T02:48:37.012Z,27.9
2018-11-20T02:49:22.440Z,27.9
2018-11-20T02:50:15.040Z,27.9
2018-11-20T02:51:03.879Z,28.2
2018-11-20T02:51:54.832Z,28.4
2018-11-20T02:52:45.166Z,28.6
2018-11-20T02:53:35.031Z,28.7
2018-11-20T02:54:23.602Z,28.8
2018-11-20T02:55:13.505Z,28.9
2018-11-20T02:56:05.454Z,29.1
2018-11-20T02:56:55.160Z,29.1
2018-11-20T02:57:44.758Z,29.3
2018-11-20T02:58:34.494Z,29.3
2018-11-20T02:59:25.149Z,29.4
2018-11-20T03:00:15.920Z,29.4
2018-11-20T03:01:04.934Z,29.5
2018-11-20T03:01:55.316Z,29.6
2018-11-20T03:02:44.774Z,29.6
2018-11-20T03:03:35.987Z,29.6
2018-11-20T03:04:25.459Z,29.7
2018-11-20T03:05:14.994Z,29.8
2018-11-20T03:06:05.314Z,29.8
2018-11-20T03:06:55.014Z,29.8
2018-11-20T03:07:45.921Z,29.8
2018-11-20T03:08:36.178Z,29.8
2018-11-20T03:09:26.036Z,29.8
2018-11-20T03:10:15.926Z,29.9
2018-11-20T03:11:05.547Z,29.9
2018-11-20T03:11:55.049Z,29.9
2018-11-20T03:12:45.339Z,29.9
2018-11-20T03:13:36.659Z,29.9
2018-11-20T03:14:25.943Z,29.9
2018-11-20T03:15:15.923Z,29.9
2018-11-20T03:16:06.510Z,29.9
2018-11-20T03:16:55.865Z,29.9
2018-11-20T03:17:47.043Z,29.9
2018-11-20T03:18:36.408Z,29.9
2018-11-20T03:19:25.158Z,29.9
2018-11-20T03:20:16.696Z,29.9
2018-11-20T03:21:06.698Z,29.9
2018-11-20T03:21:57.111Z,29.9
2018-11-20T03:22:47.213Z,29.9
2018-11-20T03:23:36.779Z,29.9
2018-11-20T03:24:26.845Z,29.9
2018-11-20T03:25:16.602Z,29.9
2018-11-20T03:26:07.545Z,29.9
2018-11-20T03:26:58.185Z,29.9
2018-11-20T03:27:47.015Z,30
2018-11-20T03:28:37.345Z,30
2018-11-20T03:29:27.657Z,29.9
2018-11-20T03:30:17.105Z,29.9
2018-11-20T03:31:07.345Z,29.8
2018-11-20T03:31:57.105Z,29.6
2018-11-20T03:32:48.082Z,29.4
2018-11-20T03:33:37.167Z,29.2
2018-11-20T03:34:28.396Z,28.9
2018-11-20T03:35:17.850Z,28.8
2018-11-20T03:36:08.658Z,28.6
2018-11-20T03:36:58.014Z,28.5
2018-11-20T03:37:47.929Z,28.6
2018-11-20T03:38:37.408Z,28.9
2018-11-20T03:39:27.010Z,29.3
2018-11-20T03:40:18.651Z,29.2
2018-11-20T03:41:08.142Z,28.6
2018-11-20T03:41:58.144Z,28.1
2018-11-20T03:42:46.994Z,27.8
2018-11-20T03:43:37.450Z,27.7
2018-11-20T03:44:28.751Z,27.9
2018-11-20T03:45:18.184Z,28.2
2018-11-20T03:46:07.956Z,28.4
2018-11-20T03:46:58.349Z,28.6
2018-11-20T03:47:49.417Z,28.8
2018-11-20T03:48:37.629Z,28.9
2018-11-20T03:49:28.481Z,29.1
2018-11-20T03:50:18.087Z,29.3
2018-11-20T03:51:08.828Z,29.4
2018-11-20T03:51:59.012Z,29.5
2018-11-20T03:52:48.404Z,29.6
2018-11-20T03:53:38.328Z,29.7
2018-11-20T03:54:27.653Z,29.8
2018-11-20T03:55:18.985Z,29.9
2018-11-20T03:56:07.928Z,29.9
2018-11-20T03:56:59.099Z,29.8
2018-11-20T03:57:47.743Z,29.6
2018-11-20T03:58:38.451Z,29.3
2018-11-20T03:59:27.506Z,29.1
2018-11-20T04:00:18.574Z,28.9
2018-11-20T04:01:08.303Z,28.9
2018-11-20T04:01:59.083Z,28.8
2018-11-20T04:02:49.805Z,28.8
2018-11-20T04:03:39.743Z,28.8
2018-11-20T04:04:29.508Z,28.8
2018-11-20T04:05:20.917Z,28.6
2018-11-20T04:06:09.118Z,29.2
2018-11-20T04:06:59.005Z,29.1
2018-11-20T04:07:49.995Z,28.6
2018-11-20T04:08:40.632Z,28.4
2018-11-20T04:09:30.511Z,28.3
2018-11-20T04:10:20.975Z,28.3
2018-11-20T04:11:08.847Z,28.5
2018-11-20T04:11:59.640Z,28.7
2018-11-20T04:12:50.947Z,28.9
2018-11-20T04:13:39.797Z,29.1
2018-11-20T04:14:31.157Z,29.2
2018-11-20T04:15:17.912Z,29.3
2018-11-20T04:16:10.859Z,29.4
2018-11-20T04:17:00.646Z,29.6
2018-11-20T04:17:52.459Z,29.7
2018-11-20T04:18:40.819Z,29.8
2018-11-20T04:19:30.991Z,29.8
2018-11-20T04:20:20.154Z,29.9
2018-11-20T04:21:10.774Z,29.9
2018-11-20T04:22:01.135Z,29.8
2018-11-20T04:22:51.121Z,29.4
2018-11-20T04:23:41.251Z,29.2
2018-11-20T04:24:31.307Z,29
2018-11-20T04:25:37.359Z,28.9
2018-11-20T04:26:11.618Z,28.8
2018-11-20T04:27:02.237Z,28.8
2018-11-20T04:27:51.899Z,28.7
2018-11-20T04:28:41.288Z,28.7
2018-11-20T04:29:30.541Z,28.5
2018-11-20T04:30:23.059Z,28.3
2018-11-20T04:31:12.222Z,28.3
2018-11-20T04:32:02.501Z,28.1
2018-11-20T04:32:52.088Z,28.1
2018-11-20T04:33:43.016Z,28
2018-11-20T04:34:32.008Z,27.9
2018-11-20T04:35:22.209Z,27.8
2018-11-20T04:36:12.843Z,27.8
2018-11-20T09:08:46.212Z,29.3
2018-11-20T09:09:36.921Z,29.4
2018-11-20T09:10:26.127Z,29.5
2018-11-20T09:11:14.847Z,29.6
2018-11-20T09:12:06.075Z,29.5
2018-11-20T09:12:56.024Z,29.4
2018-11-20T09:13:47.488Z,29.1
2018-11-20T09:14:36.459Z,28.9
2018-11-20T09:15:25.751Z,28.8
2018-11-20T09:16:16.374Z,28.7
2018-11-20T09:17:07.714Z,28.6
2018-11-20T09:17:56.963Z,28.6
2018-11-20T09:18:46.172Z,28.6
2018-11-20T09:19:37.564Z,28.6
2018-11-20T09:20:29.230Z,28.2
2018-11-20T09:21:17.143Z,27.9
2018-11-20T09:22:06.959Z,27.8
2018-11-20T09:22:57.314Z,27.6
2018-11-20T09:23:47.063Z,27.6
2018-11-20T09:24:36.361Z,27.5
2018-11-20T09:25:25.204Z,27.4
2018-11-20T09:26:17.306Z,27.4
2018-11-20T09:27:06.978Z,27.3
2018-11-20T09:27:57.291Z,27.2
2018-11-20T09:28:47.195Z,28.1
2018-11-20T09:29:37.656Z,27.6
2018-11-20T09:30:27.023Z,27.4
2018-11-20T09:31:16.246Z,27.3
2018-11-20T09:32:05.751Z,27.3
2018-11-20T09:32:58.271Z,27.4
2018-11-20T09:33:47.431Z,27.6
2018-11-20T09:34:40.325Z,27.9
2018-11-20T09:35:31.721Z,28.1
2018-11-20T09:36:18.128Z,28.3
2018-11-20T09:37:07.602Z,28.4
2018-11-20T09:37:58.190Z,28.6
2018-11-20T09:38:45.175Z,28.8
2018-11-20T09:39:38.568Z,28.9
2018-11-20T09:40:27.276Z,29.1
2018-11-20T09:41:17.657Z,29.2
2018-11-20T09:42:07.852Z,29.3
2018-11-20T09:42:58.490Z,29.4
2018-11-20T09:43:48.077Z,29.5
2018-11-20T09:44:38.792Z,29.5
2018-11-20T09:45:28.460Z,29.4
2018-11-20T09:46:18.602Z,29.3
2018-11-20T09:47:08.797Z,29.1
2018-11-20T09:47:57.952Z,28.9
2018-11-20T09:48:49.338Z,28.8
2018-11-20T09:49:38.902Z,28.7
2018-11-20T09:50:28.609Z,28.7
2018-11-20T09:51:18.906Z,28.6
2018-11-20T09:52:08.583Z,28.6
2018-11-20T09:53:00.565Z,28.6
2018-11-20T09:53:48.088Z,28.6
2018-11-20T09:54:39.617Z,28.6
2018-11-20T09:55:28.908Z,28.4
2018-11-20T09:56:18.432Z,28
2018-11-20T09:57:09.919Z,28.8
2018-11-20T09:57:58.548Z,28.1
2018-11-20T09:58:49.665Z,27.8
2018-11-20T09:59:41.659Z,27.7
2018-11-20T10:00:30.753Z,27.6
2018-11-20T10:01:19.752Z,27.7
2018-11-20T10:02:10.099Z,27.9
2018-11-20T10:03:00.051Z,28.2
2018-11-20T10:03:51.532Z,28.4
2018-11-20T10:04:39.045Z,28.6
2018-11-20T10:05:31.359Z,28.8
2018-11-20T10:06:20.379Z,28.9
2018-11-20T10:07:11.926Z,29.1
2018-11-20T10:07:59.890Z,29.2
2018-11-20T10:08:51.929Z,29.3
2018-11-20T10:09:40.736Z,29.4
2018-11-20T10:10:29.386Z,29.5
2018-11-20T10:11:20.535Z,29.6
2018-11-20T10:12:09.625Z,29.5
2018-11-20T10:13:00.011Z,29.4
2018-11-20T10:13:51.064Z,29.1
2018-11-20T10:14:41.431Z,28.9
2018-11-20T10:15:30.762Z,28.8
2018-11-20T10:16:19.575Z,28.8
2018-11-20T10:17:10.162Z,28.8
2018-11-20T10:18:01.048Z,28.7
2018-11-20T10:18:50.262Z,28.7
2018-11-20T10:19:41.020Z,28.6
2018-11-20T10:20:31.555Z,28.6
2018-11-20T10:21:21.024Z,28.5
2018-11-20T10:22:13.314Z,28.4
2018-11-20T10:23:00.794Z,28
2018-11-20T10:23:52.488Z,28.1
2018-11-20T10:24:41.500Z,28.4
2018-11-20T10:25:34.625Z,27.9
2018-11-20T10:26:22.183Z,27.7
2018-11-20T10:27:11.844Z,27.6
2018-11-20T10:28:00.942Z,27.6
2018-11-20T10:29:41.055Z,28.1
2018-11-20T10:30:31.917Z,28.3
2018-11-20T10:31:22.542Z,28.5
2018-11-20T10:32:12.377Z,28.7
2018-11-20T10:33:02.770Z,28.8
2018-11-20T10:33:51.584Z,29
2018-11-20T10:34:42.630Z,29.1
2018-11-20T10:35:32.433Z,29.3
2018-11-20T10:36:23.712Z,29.4
2018-11-20T10:37:11.227Z,29.5
2018-11-20T10:38:01.199Z,29.6
2018-11-20T10:38:52.746Z,29.6
2018-11-20T10:39:42.961Z,29.6
2018-11-20T10:40:32.744Z,29.4
2018-11-20T10:41:23.951Z,29.2
2018-11-20T10:42:12.016Z,29
2018-11-20T10:43:02.085Z,28.9
2018-11-20T10:43:52.669Z,28.8
2018-11-20T10:44:42.571Z,28.8
2018-11-20T10:45:33.756Z,28.8
2018-11-20T10:46:25.656Z,28.7
2018-11-20T10:47:12.019Z,28.7
2018-11-20T10:48:03.093Z,28.7
2018-11-20T10:48:52.177Z,28.7
2018-11-20T10:49:43.523Z,28.6
2018-11-20T10:50:32.743Z,28.4
2018-11-20T10:51:23.384Z,28.3
2018-11-20T10:52:11.513Z,28.6
2018-11-20T10:53:03.710Z,28
2018-11-20T10:54:42.987Z,27.8
2018-11-20T10:55:32.673Z,27.7
2018-11-20T10:57:13.993Z,28.1
2018-11-20T10:58:03.075Z,28.3
2018-11-20T10:58:53.810Z,28.5
2018-11-20T10:59:45.234Z,28.7
2018-11-20T11:00:33.348Z,28.9
2018-11-20T11:01:24.607Z,29
2018-11-20T11:02:13.403Z,29.2
2018-11-20T11:03:03.620Z,29.3
2018-11-20T11:03:52.632Z,29.4
2018-11-20T11:04:44.071Z,29.5
2018-11-20T11:05:33.267Z,29.6
2018-11-20T11:06:27.006Z,29.6
2018-11-20T11:07:20.586Z,29.6
2018-11-20T11:08:05.245Z,29.4
2018-11-20T11:08:54.939Z,29.2
2018-11-20T11:09:43.179Z,29
2018-11-20T11:10:34.433Z,28.9
2018-11-20T11:11:26.338Z,28.9
2018-11-20T11:12:17.937Z,28.9
2018-11-20T11:13:05.232Z,28.8
2018-11-20T11:13:55.547Z,28.8
2018-11-20T11:14:46.272Z,28.8
2018-11-20T11:15:35.119Z,28.8
2018-11-20T11:16:24.935Z,28.8
2018-11-20T11:17:15.702Z,28.8
2018-11-20T11:18:05.248Z,28.6
2018-11-20T11:18:53.389Z,28.3
2018-11-20T11:19:45.811Z,28.9
2018-11-20T11:20:38.106Z,28.1
2018-11-20T11:21:25.174Z,27.9
2018-11-20T11:22:15.042Z,27.8
2018-11-20T11:23:07.673Z,27.8
2018-11-20T11:23:55.661Z,27.9
2018-11-20T11:24:45.270Z,28.1
2018-11-20T11:25:35.280Z,28.3
2018-11-20T11:26:24.488Z,28.6
2018-11-20T11:27:15.277Z,28.8
2018-11-20T11:28:06.275Z,28.9
2018-11-20T11:28:59.132Z,29.1
2018-11-20T11:29:44.961Z,29.2
2018-11-20T11:30:35.078Z,29.3
2018-11-20T11:31:25.336Z,29.4
2018-11-20T11:32:14.850Z,29.6
2018-11-20T11:33:05.316Z,29.6
2018-11-20T11:33:55.144Z,29.7
2018-11-20T11:34:46.051Z,29.6
2018-11-20T11:35:34.983Z,29.5
2018-11-20T11:36:25.213Z,29.3
2018-11-20T11:37:15.018Z,29.1
2018-11-20T11:38:06.890Z,28.9
2018-11-20T11:38:56.058Z,28.9
2018-11-20T11:39:47.100Z,28.8
2018-11-20T11:40:35.937Z,28.8
2018-11-20T11:41:26.313Z,28.8
2018-11-20T11:42:16.060Z,28.8
2018-11-20T11:43:06.470Z,28.8
2018-11-20T11:43:56.173Z,28.7
2018-11-20T11:44:46.102Z,28.7
2018-11-20T11:45:35.812Z,28.6
2018-11-20T11:46:26.580Z,28.3
2018-11-20T11:47:16.795Z,28.7
2018-11-20T11:48:07.924Z,28.3
2018-11-20T11:48:56.987Z,27.9
2018-11-20T11:50:35.516Z,27.8
2018-11-20T11:51:31.239Z,27.8
2018-11-20T11:52:17.937Z,28.1
2018-11-20T11:53:07.839Z,28.3
2018-11-20T11:53:56.636Z,28.5
2018-11-20T11:54:47.155Z,28.7
2018-11-20T11:55:36.309Z,28.8
2018-11-20T11:56:27.415Z,29
2018-11-20T11:57:16.871Z,29.2
2018-11-20T11:58:06.311Z,29.3
2018-11-20T11:58:57.352Z,29.4
2018-11-20T11:59:46.912Z,29.5
2018-11-20T12:00:38.079Z,29.6
2018-11-20T12:01:27.816Z,29.7
2018-11-20T12:03:55.552Z,29.4
2018-11-20T12:04:47.749Z,29.2
2018-11-20T12:05:37.323Z,29
2018-11-20T12:06:26.499Z,28.9
2018-11-20T12:07:18.137Z,28.8
2018-11-20T12:08:08.481Z,28.8
2018-11-20T12:08:58.829Z,28.8
2018-11-20T12:09:47.883Z,28.8
2018-11-20T12:10:43.433Z,28.8
2018-11-20T12:11:28.186Z,28.8
2018-11-20T12:12:17.070Z,28.7
2018-11-20T12:13:09.092Z,28.7
2018-11-20T12:13:57.438Z,28.5
2018-11-20T12:14:52.061Z,28.3
2018-11-20T12:15:38.361Z,28.8
2018-11-20T12:16:29.247Z,28.2
2018-11-20T12:17:18.693Z,27.9
2018-11-20T12:19:49.010Z,27.9
2018-11-20T12:20:39.006Z,28.1
2018-11-20T12:21:28.355Z,28.4
2018-11-20T12:22:19.477Z,28.6
2018-11-20T12:23:09.222Z,28.8
2018-11-20T12:23:59.517Z,28.9
2018-11-20T12:24:51.030Z,29.1
2018-11-20T12:25:38.825Z,29.3
2018-11-20T12:26:29.472Z,29.3
2018-11-20T12:27:20.302Z,29.4
2018-11-20T12:28:08.547Z,29.6
2018-11-20T12:29:05.048Z,29.7
2018-11-20T12:29:50.303Z,29.7
2018-11-20T12:30:39.115Z,29.7
2018-11-20T12:31:34.525Z,29.6
2018-11-20T12:32:18.915Z,29.3
2018-11-20T12:33:09.917Z,29.1
2018-11-20T12:34:03.885Z,29
2018-11-20T12:34:50.167Z,28.9
2018-11-20T12:35:47.957Z,28.9
2018-11-20T12:36:34.345Z,28.9
2018-11-20T12:37:22.432Z,28.9
2018-11-20T12:38:09.622Z,28.9
2018-11-20T12:39:03.822Z,28.8
2018-11-20T12:39:51.315Z,28.8
2018-11-20T12:40:40.588Z,28.8
2018-11-20T12:41:33.417Z,28.8
2018-11-20T12:42:22.952Z,28.4
2018-11-20T12:43:09.750Z,28.5
2018-11-20T12:44:06.595Z,28.6
2018-11-20T12:44:50.021Z,28
2018-11-20T12:45:43.024Z,27.9
2018-11-20T12:48:12.426Z,28
2018-11-20T12:49:04.951Z,28.2
2018-11-20T12:49:54.716Z,28.4
2018-11-20T12:50:42.163Z,28.7
2018-11-20T12:51:33.975Z,28.9
2018-11-20T12:52:25.096Z,29
2018-11-20T12:53:13.439Z,29.1
2018-11-20T12:54:03.699Z,29.3
2018-11-20T12:54:55.263Z,29.4
2018-11-20T12:55:43.723Z,29.5
2018-11-20T12:56:30.435Z,29.6
2018-11-20T12:57:22.559Z,29.7
2018-11-20T12:58:11.530Z,29.7
2018-11-20T12:59:03.336Z,29.7
2018-11-20T12:59:52.236Z,29.4
2018-11-20T13:00:44.455Z,29.3
2018-11-20T13:01:31.950Z,29.1
2018-11-20T13:02:22.427Z,29
2018-11-20T13:03:10.836Z,28.9
2018-11-20T13:04:02.960Z,28.9
2018-11-20T13:04:55.194Z,28.9
2018-11-20T13:05:43.734Z,28.8
2018-11-20T13:06:32.509Z,28.8
2018-11-20T13:07:23.410Z,28.8
2018-11-20T13:08:12.192Z,28.8
2018-11-20T13:09:03.960Z,28.8
2018-11-20T13:09:53.667Z,28.7
2018-11-20T13:10:41.799Z,28.3
2018-11-20T13:11:31.919Z,28.8
2018-11-20T13:12:22.717Z,28.3
2018-11-20T13:13:13.207Z,28
2018-11-20T13:14:06.455Z,27.9
2018-11-20T13:15:43.274Z,27.9
2018-11-20T13:16:32.530Z,28.1
2018-11-20T13:17:25.048Z,28.3
2018-11-20T13:18:14.379Z,28.5
2018-11-20T13:19:04.139Z,28.8
2018-11-20T13:19:53.670Z,28.9
2018-11-20T13:20:43.464Z,29.1
2018-11-20T13:21:33.225Z,29.2
2018-11-20T13:22:24.896Z,29.3
2018-11-20T13:23:14.444Z,29.4
2018-11-20T13:24:02.776Z,29.5
2018-11-20T13:24:52.394Z,29.6
2018-11-20T13:25:43.879Z,29.7
2018-11-20T13:26:34.771Z,29.7
2018-11-20T13:27:22.982Z,29.6
2018-11-20T13:28:13.807Z,29.4
2018-11-20T13:29:02.958Z,29.3
2018-11-20T13:29:52.890Z,29.1
2018-11-20T13:30:43.846Z,29
2018-11-20T13:31:33.811Z,28.9
2018-11-20T13:32:23.691Z,28.9
2018-11-20T13:33:17.803Z,28.8
2018-11-20T13:34:06.083Z,28.8
2018-11-20T13:34:57.639Z,28.8
2018-11-20T13:35:44.227Z,28.8
2018-11-20T13:36:34.173Z,28.8
2018-11-20T13:37:25.813Z,28.7
2018-11-20T13:38:14.315Z,28.6
2018-11-20T13:39:07.386Z,28.2
2018-11-20T13:39:53.568Z,28.7
2018-11-20T13:40:43.240Z,28.3
2018-11-20T13:41:34.135Z,27.9
2018-11-20T13:42:24.537Z,27.8
2018-11-20T13:43:16.445Z,27.7
2018-11-20T13:44:04.987Z,27.8
2018-11-20T13:44:57.247Z,27.9
2018-11-20T13:45:46.923Z,28.2
2018-11-20T13:46:36.865Z,28.4
2018-11-20T13:47:24.005Z,28.6
2018-11-20T13:48:15.857Z,28.8
2018-11-20T13:49:04.917Z,28.9
2018-11-20T13:49:56.290Z,29.1
2018-11-20T13:50:45.322Z,29.2
2018-11-20T14:07:33.004Z,28.4
2018-11-20T14:08:22.499Z,28.6
2018-11-20T14:09:14.145Z,28.4
2018-11-20T14:10:04.158Z,27.9
2018-11-20T14:10:53.878Z,27.8
2018-11-20T14:11:58.328Z,27.7
2018-11-20T14:12:33.754Z,27.8
2018-11-20T14:13:24.603Z,27.9
2018-11-20T14:14:13.411Z,28.2
2018-11-20T14:15:03.704Z,28.4
2018-11-20T14:16:07.415Z,28.6
2018-11-20T14:16:43.803Z,28.8
2018-11-20T14:17:33.551Z,28.9
2018-11-20T14:18:24.508Z,29.1
2018-11-20T14:19:29.328Z,29.2
2018-11-20T14:20:04.755Z,29.4
2018-11-20T14:20:54.385Z,29.4
2018-11-20T14:21:44.350Z,29.5
2018-11-20T14:22:34.122Z,29.6
2018-11-20T14:23:41.349Z,29.7
2018-11-20T14:24:14.113Z,29.6
2018-11-20T14:25:04.413Z,29.6
2018-11-20T14:25:54.418Z,29.3
2018-11-20T14:26:59.391Z,29.1
2018-11-20T14:27:35.467Z,29
2018-11-20T14:28:40.108Z,28.9
2018-11-20T14:29:14.775Z,28.9
2018-11-20T14:30:19.532Z,28.8
2018-11-20T14:30:54.481Z,28.8
2018-11-20T14:31:45.332Z,28.8
2018-11-20T14:32:34.642Z,28.8
2018-11-20T14:33:24.570Z,28.7
2018-11-20T14:34:14.657Z,28.7
2018-11-20T14:35:05.376Z,28.6
2018-11-20T14:35:55.601Z,28.4
2018-11-20T14:37:01.114Z,28.3
2018-11-20T14:37:51.770Z,28.4
2018-11-20T14:38:38.864Z,28
2018-11-20T14:40:06.390Z,27.8
2018-11-20T14:41:28.124Z,27.8
2018-11-20T14:41:44.309Z,27.9
2018-11-20T14:42:34.792Z,28.1
2018-11-20T14:43:25.974Z,28.3
2018-11-20T14:44:15.249Z,28.5
2018-11-20T14:45:06.831Z,28.7
2018-11-20T14:45:55.946Z,28.9
2018-11-20T14:46:46.311Z,29
2018-11-20T14:47:35.416Z,29.1
2018-11-20T14:48:40.311Z,29.3
2018-11-20T14:49:16.045Z,29.4
2018-11-20T14:50:05.576Z,29.5
2018-11-20T14:51:24.741Z,29.6
2018-11-20T14:51:45.091Z,29.6
2018-11-20T14:52:37.778Z,29.6
2018-11-20T14:53:25.770Z,29.6
2018-11-20T14:54:18.163Z,29.3
2018-11-20T14:55:06.443Z,29.1
2018-11-20T14:55:56.745Z,29
2018-11-20T14:56:47.171Z,28.9
2018-11-20T14:57:51.727Z,28.9
2018-11-20T14:58:26.502Z,28.8
2018-11-20T14:59:16.707Z,28.8
2018-11-20T15:00:06.948Z,28.8
2018-11-20T15:00:56.494Z,28.8
2018-11-20T15:01:46.584Z,28.7
2018-11-20T15:02:51.394Z,28.7
2018-11-20T15:03:27.220Z,28.6
2018-11-20T15:04:17.665Z,28.3
2018-11-20T15:05:06.872Z,28.4
2018-11-20T15:05:57.097Z,28.6
2018-11-20T15:06:48.711Z,28.1
2018-11-20T15:07:36.750Z,27.9
2018-11-20T15:08:43.587Z,27.8
2018-11-20T15:09:17.342Z,27.8
2018-11-20T15:10:07.809Z,27.9
2018-11-20T15:10:57.164Z,28.1
2018-11-20T15:11:47.632Z,28.4
2018-11-20T15:12:37.548Z,28.6
2018-11-20T15:13:27.414Z,28.8
2018-11-20T15:14:18.211Z,28.9
2018-11-20T15:15:07.969Z,29.1
2018-11-20T15:15:56.857Z,29.2
2018-11-20T15:17:02.227Z,29.3
2018-11-20T15:17:38.269Z,29.4
2018-11-20T15:18:27.671Z,29.5
2018-11-20T15:19:17.068Z,29.6
2018-11-20T15:20:22.824Z,29.7
2018-11-20T15:21:11.389Z,29.6
2018-11-20T15:22:37.427Z,29.3
2018-11-20T15:23:27.653Z,29.2
2018-11-20T15:24:16.933Z,29
2018-11-20T15:25:09.374Z,28.9
2018-11-20T15:26:05.574Z,28.9
2018-11-20T15:26:47.661Z,28.8
2018-11-20T15:27:39.238Z,28.8
2018-11-20T15:28:28.911Z,28.5
2018-11-20T15:29:18.317Z,28.2
2018-11-20T15:30:08.759Z,28
2018-11-20T15:31:13.263Z,27.9
2018-11-20T15:32:55.021Z,27.8
2018-11-20T15:33:30.310Z,27.7
2018-11-20T15:34:19.070Z,27.7
2018-11-20T15:35:09.965Z,27.6
2018-11-20T15:36:13.790Z,27.6
2018-11-20T15:36:50.658Z,27.3
2018-11-20T15:37:40.271Z,27.4
2018-11-20T15:38:42.557Z,28.3
2018-11-20T15:39:19.611Z,27.7
2018-11-20T15:40:10.695Z,27.6
2018-11-20T15:40:59.898Z,27.5
2018-11-20T15:41:51.538Z,27.5
2018-11-20T15:42:40.182Z,27.6
2018-11-20T15:43:28.769Z,27.9
2018-11-20T15:44:20.577Z,28.1
2018-11-20T15:45:09.870Z,28.3
2018-11-20T15:46:13.922Z,28.5
2018-11-20T15:47:05.627Z,28.8
2018-11-20T15:47:40.228Z,28.9
2018-11-20T15:48:30.761Z,29
2018-11-20T15:49:35.849Z,29.1
2018-11-20T15:50:09.929Z,29.3
2018-11-20T15:50:59.305Z,29.3
2018-11-20T15:51:49.108Z,29.4
2018-11-20T15:52:40.552Z,29.5
2018-11-20T15:53:30.608Z,29.6
2018-11-20T15:54:20.005Z,29.7
2018-11-20T15:55:09.825Z,29.6
2018-11-20T15:55:59.499Z,29.6
2018-11-20T15:56:50.654Z,29.3
2018-11-20T15:57:40.322Z,29.1
2018-11-20T15:58:31.176Z,28.9
2018-11-20T15:59:20.185Z,28.8
2018-11-20T16:00:25.583Z,28.8
2018-11-20T16:01:00.899Z,28.8
2018-11-20T16:01:51.011Z,28.8
2018-11-20T16:02:41.196Z,28.4
2018-11-20T16:03:32.914Z,28.2
2018-11-20T16:04:20.911Z,28
2018-11-20T16:05:10.457Z,27.9
2018-11-20T16:06:49.928Z,27.8
2018-11-20T16:07:41.781Z,27.7
2018-11-20T16:08:32.071Z,27.7
2018-11-20T16:09:22.133Z,27.6
2018-11-20T16:10:10.863Z,27.6
2018-11-20T16:11:01.333Z,27.4
2018-11-20T16:11:52.464Z,27.6
2018-11-20T16:12:58.736Z,28.1
2018-11-20T16:13:30.602Z,27.6
2018-11-20T16:14:21.763Z,27.6
2018-11-20T16:15:25.788Z,27.5
2018-11-20T16:16:03.270Z,27.5
2018-11-20T16:16:51.875Z,27.6
2018-11-20T16:17:41.072Z,27.9
2018-11-20T16:18:31.017Z,28.1
2018-11-20T16:19:22.189Z,28.3
2018-11-20T16:20:26.302Z,28.5
2018-11-20T16:21:17.435Z,28.7
2018-11-20T16:21:52.474Z,28.9
2018-11-20T16:22:43.067Z,29
2018-11-20T16:23:32.441Z,29.1
2018-11-20T16:24:23.488Z,29.2
2018-11-20T16:25:13.185Z,29.3
2018-11-20T16:26:02.463Z,29.4
2018-11-20T16:26:53.054Z,29.6
2018-11-20T16:27:43.768Z,29.6
2018-11-20T16:28:48.530Z,29.7
2018-11-20T16:29:22.402Z,29.7
2018-11-20T16:30:12.240Z,29.6
2018-11-20T16:31:04.172Z,29.5
2018-11-20T16:31:54.057Z,29.3
2018-11-20T16:32:43.787Z,29.1
2018-11-20T16:33:32.627Z,29
2018-11-20T16:34:23.609Z,28.9
2018-11-20T16:35:12.699Z,28.9
2018-11-20T16:36:08.944Z,28.9
2018-11-20T16:36:53.111Z,28.6